sensor_id;sensor_type;location;lat;lon;timestamp;temperature;humidity
12130;DHT22;6128;59.340;18.040;2023-08-31T00:01:11;14.60;99.90
12130;DHT22;6128;59.340;18.040;2023-08-31T00:03:39;14.60;99.90
12130;DHT22;6128;59.340;18.040;2023-08-31T00:06:06;14.60;99.90
12130;DHT22;6128;59.340;18.040;2023-08-31T00:08:34;14.50;99.90
12130;DHT22;6128;59.340;18.040;2023-08-31T00:11:01;14.50;99.90
12130;DHT22;6128;59.340;18.040;2023-08-31T00:13:28;14.50;99.90
12130;DHT22;6128;59.340;18.040;2023-08-31T00:15:56;14.40;99.90
12130;DHT22;6128;59.340;18.040;2023-08-31T00:18:25;14.40;99.90
12130;DHT22;6128;59.340;18.040;2023-08-31T00:20:53;14.30;99.90
12130;DHT22;6128;59.340;18.040;2023-08-31T00:23:20;14.30;99.90
12130;DHT22;6128;59.340;18.040;2023-08-31T00:25:47;14.30;99.90
12130;DHT22;6128;59.340;18.040;2023-08-31T00:28:14;14.30;99.90
12130;DHT22;6128;59.340;18.040;2023-08-31T00:30:44;14.30;99.90
12130;DHT22;6128;59.340;18.040;2023-08-31T00:33:11;14.40;99.90
12130;DHT22;6128;59.340;18.040;2023-08-31T00:35:40;14.40;99.90
12130;DHT22;6128;59.340;18.040;2023-08-31T00:38:09;14.40;99.90
12130;DHT22;6128;59.340;18.040;2023-08-31T00:40:39;14.40;99.90
12130;DHT22;6128;59.340;18.040;2023-08-31T00:43:11;14.40;99.90
12130;DHT22;6128;59.340;18.040;2023-08-31T00:45:39;14.40;99.90
12130;DHT22;6128;59.340;18.040;2023-08-31T00:48:06;14.40;99.90
12130;DHT22;6128;59.340;18.040;2023-08-31T00:50:34;14.40;99.90
12130;DHT22;6128;59.340;18.040;2023-08-31T00:53:02;14.30;99.90
12130;DHT22;6128;59.340;18.040;2023-08-31T00:55:31;14.30;99.90
12130;DHT22;6128;59.340;18.040;2023-08-31T00:57:58;14.30;99.90
12130;DHT22;6128;59.340;18.040;2023-08-31T01:00:33;14.30;99.90
12130;DHT22;6128;59.340;18.040;2023-08-31T01:03:08;14.30;99.90
12130;DHT22;6128;59.340;18.040;2023-08-31T01:05:40;14.30;99.90
12130;DHT22;6128;59.340;18.040;2023-08-31T01:08:22;14.20;99.90
12130;DHT22;6128;59.340;18.040;2023-08-31T01:10:58;14.20;99.90
12130;DHT22;6128;59.340;18.040;2023-08-31T01:13:31;14.20;99.90
12130;DHT22;6128;59.340;18.040;2023-08-31T01:16:03;14.20;99.90
12130;DHT22;6128;59.340;18.040;2023-08-31T01:18:32;14.20;99.90
12130;DHT22;6128;59.340;18.040;2023-08-31T01:21:08;14.20;99.90
12130;DHT22;6128;59.340;18.040;2023-08-31T01:23:57;14.10;99.90
12130;DHT22;6128;59.340;18.040;2023-08-31T01:26:25;14.10;99.90
12130;DHT22;6128;59.340;18.040;2023-08-31T01:28:52;14.10;99.90
12130;DHT22;6128;59.340;18.040;2023-08-31T01:31:22;14.10;99.90
12130;DHT22;6128;59.340;18.040;2023-08-31T01:33:49;14.10;99.90
12130;DHT22;6128;59.340;18.040;2023-08-31T01:36:22;14.10;99.90
12130;DHT22;6128;59.340;18.040;2023-08-31T01:38:58;14.10;99.90
12130;DHT22;6128;59.340;18.040;2023-08-31T01:41:26;14.10;99.90
12130;DHT22;6128;59.340;18.040;2023-08-31T01:43:55;14.10;99.90
12130;DHT22;6128;59.340;18.040;2023-08-31T01:46:22;14.10;99.90
12130;DHT22;6128;59.340;18.040;2023-08-31T01:48:49;14.10;99.90
12130;DHT22;6128;59.340;18.040;2023-08-31T01:51:16;14.10;99.90
12130;DHT22;6128;59.340;18.040;2023-08-31T01:53:44;14.00;99.90
12130;DHT22;6128;59.340;18.040;2023-08-31T01:56:13;14.00;99.90
12130;DHT22;6128;59.340;18.040;2023-08-31T01:58:40;14.00;99.90
12130;DHT22;6128;59.340;18.040;2023-08-31T02:01:07;14.00;99.90
12130;DHT22;6128;59.340;18.040;2023-08-31T02:03:34;14.00;99.90
12130;DHT22;6128;59.340;18.040;2023-08-31T02:06:01;14.00;99.90
12130;DHT22;6128;59.340;18.040;2023-08-31T02:08:29;14.10;99.90
12130;DHT22;6128;59.340;18.040;2023-08-31T02:10:56;14.10;99.90
12130;DHT22;6128;59.340;18.040;2023-08-31T02:13:25;14.10;99.90
12130;DHT22;6128;59.340;18.040;2023-08-31T02:15:52;14.10;99.90
12130;DHT22;6128;59.340;18.040;2023-08-31T02:18:19;14.10;99.90
12130;DHT22;6128;59.340;18.040;2023-08-31T02:20:46;14.10;99.90
12130;DHT22;6128;59.340;18.040;2023-08-31T02:23:13;14.10;99.90
12130;DHT22;6128;59.340;18.040;2023-08-31T02:25:40;14.10;99.90
12130;DHT22;6128;59.340;18.040;2023-08-31T02:28:07;14.10;99.90
12130;DHT22;6128;59.340;18.040;2023-08-31T02:30:36;14.10;99.90
12130;DHT22;6128;59.340;18.040;2023-08-31T02:33:04;14.00;99.90
12130;DHT22;6128;59.340;18.040;2023-08-31T02:35:31;14.10;99.90
12130;DHT22;6128;59.340;18.040;2023-08-31T02:37:58;14.00;99.90
12130;DHT22;6128;59.340;18.040;2023-08-31T02:40:25;14.00;99.90
12130;DHT22;6128;59.340;18.040;2023-08-31T02:42:52;14.00;99.90
12130;DHT22;6128;59.340;18.040;2023-08-31T02:45:19;14.10;99.90
12130;DHT22;6128;59.340;18.040;2023-08-31T02:47:47;14.00;99.90
12130;DHT22;6128;59.340;18.040;2023-08-31T02:50:15;14.10;99.90
12130;DHT22;6128;59.340;18.040;2023-08-31T02:52:42;14.00;99.90
12130;DHT22;6128;59.340;18.040;2023-08-31T02:55:09;14.00;99.90
12130;DHT22;6128;59.340;18.040;2023-08-31T02:57:37;14.10;99.90
12130;DHT22;6128;59.340;18.040;2023-08-31T03:00:05;14.00;99.90
12130;DHT22;6128;59.340;18.040;2023-08-31T03:02:36;14.00;99.90
12130;DHT22;6128;59.340;18.040;2023-08-31T03:05:05;14.00;99.90
12130;DHT22;6128;59.340;18.040;2023-08-31T03:07:32;14.00;99.90
12130;DHT22;6128;59.340;18.040;2023-08-31T03:09:59;14.00;99.90
12130;DHT22;6128;59.340;18.040;2023-08-31T03:12:25;14.00;99.90
12130;DHT22;6128;59.340;18.040;2023-08-31T03:14:52;14.10;99.90
12130;DHT22;6128;59.340;18.040;2023-08-31T03:17:19;14.10;99.90
12130;DHT22;6128;59.340;18.040;2023-08-31T03:19:46;14.10;99.90
12130;DHT22;6128;59.340;18.040;2023-08-31T03:22:14;14.10;99.90
12130;DHT22;6128;59.340;18.040;2023-08-31T03:24:43;14.10;99.90
12130;DHT22;6128;59.340;18.040;2023-08-31T03:27:10;14.00;99.90
12130;DHT22;6128;59.340;18.040;2023-08-31T03:29:37;14.00;99.90
12130;DHT22;6128;59.340;18.040;2023-08-31T03:32:06;14.00;99.90
12130;DHT22;6128;59.340;18.040;2023-08-31T03:34:33;14.00;99.90
12130;DHT22;6128;59.340;18.040;2023-08-31T03:37:00;14.10;99.90
12130;DHT22;6128;59.340;18.040;2023-08-31T03:39:28;14.00;99.90
12130;DHT22;6128;59.340;18.040;2023-08-31T03:41:55;14.10;99.90
12130;DHT22;6128;59.340;18.040;2023-08-31T03:44:23;14.10;99.90
12130;DHT22;6128;59.340;18.040;2023-08-31T03:46:50;14.10;99.90
12130;DHT22;6128;59.340;18.040;2023-08-31T03:49:17;14.10;99.90
12130;DHT22;6128;59.340;18.040;2023-08-31T03:51:44;14.10;99.90
12130;DHT22;6128;59.340;18.040;2023-08-31T03:54:11;14.10;99.90
12130;DHT22;6128;59.340;18.040;2023-08-31T03:56:40;14.00;99.90
12130;DHT22;6128;59.340;18.040;2023-08-31T03:59:07;14.00;99.90
12130;DHT22;6128;59.340;18.040;2023-08-31T04:01:33;14.00;99.90
12130;DHT22;6128;59.340;18.040;2023-08-31T04:04:00;14.00;99.90
12130;DHT22;6128;59.340;18.040;2023-08-31T04:06:29;14.00;99.90
12130;DHT22;6128;59.340;18.040;2023-08-31T04:08:56;14.00;99.90
12130;DHT22;6128;59.340;18.040;2023-08-31T04:11:25;14.00;99.90
12130;DHT22;6128;59.340;18.040;2023-08-31T04:13:53;14.10;99.90
12130;DHT22;6128;59.340;18.040;2023-08-31T04:16:20;14.10;99.90
12130;DHT22;6128;59.340;18.040;2023-08-31T04:18:47;14.10;99.90
12130;DHT22;6128;59.340;18.040;2023-08-31T04:21:17;14.20;99.90
12130;DHT22;6128;59.340;18.040;2023-08-31T04:23:47;14.20;99.90
12130;DHT22;6128;59.340;18.040;2023-08-31T04:26:20;14.20;99.90
12130;DHT22;6128;59.340;18.040;2023-08-31T04:28:48;14.20;99.90
12130;DHT22;6128;59.340;18.040;2023-08-31T04:31:16;14.30;99.90
12130;DHT22;6128;59.340;18.040;2023-08-31T04:33:44;14.40;99.90
12130;DHT22;6128;59.340;18.040;2023-08-31T04:36:12;14.40;99.90
12130;DHT22;6128;59.340;18.040;2023-08-31T04:38:39;14.50;99.90
12130;DHT22;6128;59.340;18.040;2023-08-31T04:41:06;14.50;99.90
12130;DHT22;6128;59.340;18.040;2023-08-31T04:43:34;14.60;99.90
12130;DHT22;6128;59.340;18.040;2023-08-31T04:46:02;14.60;99.90
12130;DHT22;6128;59.340;18.040;2023-08-31T04:48:34;14.70;99.90
12130;DHT22;6128;59.340;18.040;2023-08-31T04:51:02;14.60;99.90
12130;DHT22;6128;59.340;18.040;2023-08-31T04:53:30;14.70;99.90
12130;DHT22;6128;59.340;18.040;2023-08-31T04:55:58;14.70;99.90
12130;DHT22;6128;59.340;18.040;2023-08-31T04:58:25;14.70;99.90
12130;DHT22;6128;59.340;18.040;2023-08-31T05:00:53;14.70;99.90
12130;DHT22;6128;59.340;18.040;2023-08-31T05:03:23;14.80;99.90
12130;DHT22;6128;59.340;18.040;2023-08-31T05:05:53;14.80;99.90
12130;DHT22;6128;59.340;18.040;2023-08-31T05:08:20;14.90;99.90
12130;DHT22;6128;59.340;18.040;2023-08-31T05:10:49;14.80;99.90
12130;DHT22;6128;59.340;18.040;2023-08-31T05:13:17;14.80;99.90
12130;DHT22;6128;59.340;18.040;2023-08-31T05:15:45;14.80;99.90
12130;DHT22;6128;59.340;18.040;2023-08-31T05:18:12;14.90;99.90
12130;DHT22;6128;59.340;18.040;2023-08-31T05:20:44;15.00;99.90
12130;DHT22;6128;59.340;18.040;2023-08-31T05:23:14;15.20;99.90
12130;DHT22;6128;59.340;18.040;2023-08-31T05:25:42;15.30;99.90
12130;DHT22;6128;59.340;18.040;2023-08-31T05:28:14;15.30;99.90
12130;DHT22;6128;59.340;18.040;2023-08-31T05:30:48;15.50;99.90
12130;DHT22;6128;59.340;18.040;2023-08-31T05:33:17;15.60;99.90
12130;DHT22;6128;59.340;18.040;2023-08-31T05:35:45;15.80;99.90
12130;DHT22;6128;59.340;18.040;2023-08-31T05:38:14;15.90;99.90
12130;DHT22;6128;59.340;18.040;2023-08-31T05:40:42;16.10;99.90
12130;DHT22;6128;59.340;18.040;2023-08-31T05:43:11;16.20;99.90
12130;DHT22;6128;59.340;18.040;2023-08-31T05:45:39;16.30;99.90
12130;DHT22;6128;59.340;18.040;2023-08-31T05:48:07;16.40;99.90
12130;DHT22;6128;59.340;18.040;2023-08-31T05:50:35;16.40;99.90
12130;DHT22;6128;59.340;18.040;2023-08-31T05:53:09;16.50;99.90
12130;DHT22;6128;59.340;18.040;2023-08-31T05:55:38;16.60;99.90
12130;DHT22;6128;59.340;18.040;2023-08-31T05:58:06;16.70;99.90
12130;DHT22;6128;59.340;18.040;2023-08-31T06:00:34;16.70;99.90
12130;DHT22;6128;59.340;18.040;2023-08-31T06:03:06;16.70;99.90
12130;DHT22;6128;59.340;18.040;2023-08-31T06:05:39;16.80;99.90
12130;DHT22;6128;59.340;18.040;2023-08-31T06:08:07;16.80;99.90
12130;DHT22;6128;59.340;18.040;2023-08-31T06:10:35;16.90;99.90
12130;DHT22;6128;59.340;18.040;2023-08-31T06:13:07;16.90;99.90
12130;DHT22;6128;59.340;18.040;2023-08-31T06:15:37;17.00;99.90
12130;DHT22;6128;59.340;18.040;2023-08-31T06:18:07;17.00;99.90
12130;DHT22;6128;59.340;18.040;2023-08-31T06:20:35;17.00;99.90
12130;DHT22;6128;59.340;18.040;2023-08-31T06:23:14;17.10;99.90
12130;DHT22;6128;59.340;18.040;2023-08-31T06:25:42;17.10;99.90
12130;DHT22;6128;59.340;18.040;2023-08-31T06:28:12;17.10;99.90
12130;DHT22;6128;59.340;18.040;2023-08-31T06:30:41;17.10;99.90
12130;DHT22;6128;59.340;18.040;2023-08-31T06:33:12;17.10;99.90
12130;DHT22;6128;59.340;18.040;2023-08-31T06:35:39;17.20;99.90
12130;DHT22;6128;59.340;18.040;2023-08-31T06:38:08;17.40;99.90
12130;DHT22;6128;59.340;18.040;2023-08-31T06:40:35;17.50;99.90
12130;DHT22;6128;59.340;18.040;2023-08-31T06:43:04;17.60;99.90
12130;DHT22;6128;59.340;18.040;2023-08-31T06:45:33;17.90;99.90
12130;DHT22;6128;59.340;18.040;2023-08-31T06:48:01;18.30;99.90
12130;DHT22;6128;59.340;18.040;2023-08-31T06:50:33;18.90;99.90
12130;DHT22;6128;59.340;18.040;2023-08-31T06:53:01;19.60;99.90
12130;DHT22;6128;59.340;18.040;2023-08-31T06:55:32;19.90;99.90
12130;DHT22;6128;59.340;18.040;2023-08-31T06:58:01;20.00;99.90
12130;DHT22;6128;59.340;18.040;2023-08-31T07:00:30;20.10;99.90
12130;DHT22;6128;59.340;18.040;2023-08-31T07:03:01;20.30;99.90
12130;DHT22;6128;59.340;18.040;2023-08-31T07:05:34;20.50;99.90
12130;DHT22;6128;59.340;18.040;2023-08-31T07:08:02;20.70;99.90
12130;DHT22;6128;59.340;18.040;2023-08-31T07:10:33;20.90;99.90
12130;DHT22;6128;59.340;18.040;2023-08-31T07:13:02;20.90;99.90
12130;DHT22;6128;59.340;18.040;2023-08-31T07:15:29;20.90;99.90
12130;DHT22;6128;59.340;18.040;2023-08-31T07:18:08;20.80;99.90
12130;DHT22;6128;59.340;18.040;2023-08-31T07:20:45;20.80;99.90
12130;DHT22;6128;59.340;18.040;2023-08-31T07:23:14;21.20;99.90
12130;DHT22;6128;59.340;18.040;2023-08-31T07:25:42;21.70;99.90
12130;DHT22;6128;59.340;18.040;2023-08-31T07:28:10;21.80;99.90
12130;DHT22;6128;59.340;18.040;2023-08-31T07:30:38;22.00;99.90
12130;DHT22;6128;59.340;18.040;2023-08-31T07:33:09;21.90;99.90
12130;DHT22;6128;59.340;18.040;2023-08-31T07:35:37;21.80;99.90
12130;DHT22;6128;59.340;18.040;2023-08-31T07:38:06;21.90;99.90
12130;DHT22;6128;59.340;18.040;2023-08-31T07:40:35;22.30;99.90
12130;DHT22;6128;59.340;18.040;2023-08-31T07:43:05;22.60;99.90
12130;DHT22;6128;59.340;18.040;2023-08-31T07:45:32;23.40;99.90
12130;DHT22;6128;59.340;18.040;2023-08-31T07:48:02;24.10;99.90
12130;DHT22;6128;59.340;18.040;2023-08-31T07:50:33;24.90;99.90
12130;DHT22;6128;59.340;18.040;2023-08-31T07:53:01;25.30;99.90
12130;DHT22;6128;59.340;18.040;2023-08-31T07:55:29;25.50;99.90
12130;DHT22;6128;59.340;18.040;2023-08-31T07:57:57;25.80;99.90
12130;DHT22;6128;59.340;18.040;2023-08-31T08:00:24;25.90;99.90
12130;DHT22;6128;59.340;18.040;2023-08-31T08:02:51;25.90;99.90
12130;DHT22;6128;59.340;18.040;2023-08-31T08:05:19;25.70;99.90
12130;DHT22;6128;59.340;18.040;2023-08-31T08:07:47;25.30;99.90
12130;DHT22;6128;59.340;18.040;2023-08-31T08:10:14;25.20;99.90
12130;DHT22;6128;59.340;18.040;2023-08-31T08:13:03;25.30;99.90
12130;DHT22;6128;59.340;18.040;2023-08-31T08:15:32;25.10;99.90
12130;DHT22;6128;59.340;18.040;2023-08-31T08:18:02;25.00;99.90
12130;DHT22;6128;59.340;18.040;2023-08-31T08:20:41;24.80;99.90
12130;DHT22;6128;59.340;18.040;2023-08-31T08:23:11;24.60;99.90
12130;DHT22;6128;59.340;18.040;2023-08-31T08:25:38;24.30;99.90
12130;DHT22;6128;59.340;18.040;2023-08-31T08:28:06;24.60;99.90
12130;DHT22;6128;59.340;18.040;2023-08-31T08:30:33;25.00;99.90
12130;DHT22;6128;59.340;18.040;2023-08-31T08:33:00;25.20;99.90
12130;DHT22;6128;59.340;18.040;2023-08-31T08:35:28;25.30;99.90
12130;DHT22;6128;59.340;18.040;2023-08-31T08:37:56;25.00;99.90
12130;DHT22;6128;59.340;18.040;2023-08-31T08:40:27;24.50;99.90
12130;DHT22;6128;59.340;18.040;2023-08-31T08:43:00;24.50;99.90
12130;DHT22;6128;59.340;18.040;2023-08-31T08:45:33;24.30;99.90
12130;DHT22;6128;59.340;18.040;2023-08-31T08:48:05;24.70;99.90
12130;DHT22;6128;59.340;18.040;2023-08-31T08:50:33;25.40;99.90
12130;DHT22;6128;59.340;18.040;2023-08-31T08:53:05;25.30;99.90
12130;DHT22;6128;59.340;18.040;2023-08-31T08:55:34;25.60;99.90
12130;DHT22;6128;59.340;18.040;2023-08-31T08:58:01;25.70;99.90
12130;DHT22;6128;59.340;18.040;2023-08-31T09:00:29;26.10;99.90
12130;DHT22;6128;59.340;18.040;2023-08-31T09:02:57;26.40;99.90
12130;DHT22;6128;59.340;18.040;2023-08-31T09:05:25;26.50;99.90
12130;DHT22;6128;59.340;18.040;2023-08-31T09:08:02;26.80;99.90
12130;DHT22;6128;59.340;18.040;2023-08-31T09:10:35;26.70;99.90
12130;DHT22;6128;59.340;18.040;2023-08-31T09:13:05;26.30;99.90
12130;DHT22;6128;59.340;18.040;2023-08-31T09:15:41;26.60;99.90
12130;DHT22;6128;59.340;18.040;2023-08-31T09:18:08;26.50;99.90
12130;DHT22;6128;59.340;18.040;2023-08-31T09:20:45;26.20;99.90
12130;DHT22;6128;59.340;18.040;2023-08-31T09:23:13;25.30;99.90
12130;DHT22;6128;59.340;18.040;2023-08-31T09:25:46;24.20;99.90
12130;DHT22;6128;59.340;18.040;2023-08-31T09:28:14;23.40;99.90
12130;DHT22;6128;59.340;18.040;2023-08-31T09:30:42;22.70;99.90
12130;DHT22;6128;59.340;18.040;2023-08-31T09:33:10;22.20;99.90
12130;DHT22;6128;59.340;18.040;2023-08-31T09:35:47;21.60;99.90
12130;DHT22;6128;59.340;18.040;2023-08-31T09:38:17;21.30;99.90
12130;DHT22;6128;59.340;18.040;2023-08-31T09:40:51;21.20;99.90
12130;DHT22;6128;59.340;18.040;2023-08-31T09:43:19;21.10;99.90
12130;DHT22;6128;59.340;18.040;2023-08-31T09:45:49;20.90;99.90
12130;DHT22;6128;59.340;18.040;2023-08-31T09:48:18;20.70;99.90
12130;DHT22;6128;59.340;18.040;2023-08-31T09:50:46;20.50;99.90
12130;DHT22;6128;59.340;18.040;2023-08-31T09:53:16;20.50;99.90
12130;DHT22;6128;59.340;18.040;2023-08-31T09:55:43;20.40;99.90
12130;DHT22;6128;59.340;18.040;2023-08-31T09:58:12;20.30;99.90
12130;DHT22;6128;59.340;18.040;2023-08-31T10:00:43;20.30;99.90
12130;DHT22;6128;59.340;18.040;2023-08-31T10:03:10;20.20;99.90
12130;DHT22;6128;59.340;18.040;2023-08-31T10:05:40;20.20;99.90
12130;DHT22;6128;59.340;18.040;2023-08-31T10:08:08;20.20;99.90
12130;DHT22;6128;59.340;18.040;2023-08-31T10:10:35;20.20;99.90
12130;DHT22;6128;59.340;18.040;2023-08-31T10:13:07;20.30;99.90
12130;DHT22;6128;59.340;18.040;2023-08-31T10:15:48;20.50;99.90
12130;DHT22;6128;59.340;18.040;2023-08-31T10:18:31;20.60;99.90
12130;DHT22;6128;59.340;18.040;2023-08-31T10:21:02;20.70;99.90
12130;DHT22;6128;59.340;18.040;2023-08-31T10:23:45;20.50;99.90
12130;DHT22;6128;59.340;18.040;2023-08-31T10:26:23;20.50;99.90
12130;DHT22;6128;59.340;18.040;2023-08-31T10:28:52;20.50;99.90
12130;DHT22;6128;59.340;18.040;2023-08-31T10:31:23;20.60;99.90
12130;DHT22;6128;59.340;18.040;2023-08-31T10:33:58;20.60;99.90
12130;DHT22;6128;59.340;18.040;2023-08-31T10:36:39;20.60;99.90
12130;DHT22;6128;59.340;18.040;2023-08-31T10:39:14;20.80;99.90
12130;DHT22;6128;59.340;18.040;2023-08-31T10:41:51;20.90;99.90
12130;DHT22;6128;59.340;18.040;2023-08-31T10:44:20;20.90;99.90
12130;DHT22;6128;59.340;18.040;2023-08-31T10:46:50;20.90;99.90
12130;DHT22;6128;59.340;18.040;2023-08-31T10:49:19;20.80;99.90
12130;DHT22;6128;59.340;18.040;2023-08-31T10:52:15;20.80;99.90
12130;DHT22;6128;59.340;18.040;2023-08-31T10:54:46;20.80;99.90
12130;DHT22;6128;59.340;18.040;2023-08-31T10:57:16;21.00;99.90
12130;DHT22;6128;59.340;18.040;2023-08-31T10:59:49;21.00;99.90
12130;DHT22;6128;59.340;18.040;2023-08-31T11:02:42;21.10;99.90
12130;DHT22;6128;59.340;18.040;2023-08-31T11:05:12;21.30;99.90
12130;DHT22;6128;59.340;18.040;2023-08-31T11:07:41;21.40;99.90
12130;DHT22;6128;59.340;18.040;2023-08-31T11:10:14;21.50;99.90
12130;DHT22;6128;59.340;18.040;2023-08-31T11:12:47;21.40;99.90
12130;DHT22;6128;59.340;18.040;2023-08-31T11:15:18;21.40;99.90
12130;DHT22;6128;59.340;18.040;2023-08-31T11:17:49;21.30;99.90
12130;DHT22;6128;59.340;18.040;2023-08-31T11:20:20;21.30;99.90
12130;DHT22;6128;59.340;18.040;2023-08-31T11:22:57;21.30;99.90
12130;DHT22;6128;59.340;18.040;2023-08-31T11:25:25;21.40;99.90
12130;DHT22;6128;59.340;18.040;2023-08-31T11:27:59;21.50;99.90
12130;DHT22;6128;59.340;18.040;2023-08-31T11:30:34;21.60;99.90
12130;DHT22;6128;59.340;18.040;2023-08-31T11:33:05;21.60;99.90
12130;DHT22;6128;59.340;18.040;2023-08-31T11:35:35;21.60;99.90
12130;DHT22;6128;59.340;18.040;2023-08-31T11:38:02;21.60;99.90
12130;DHT22;6128;59.340;18.040;2023-08-31T11:40:30;21.60;99.90
12130;DHT22;6128;59.340;18.040;2023-08-31T11:42:59;21.60;99.90
12130;DHT22;6128;59.340;18.040;2023-08-31T11:45:27;21.50;99.90
12130;DHT22;6128;59.340;18.040;2023-08-31T11:47:55;21.60;99.90
12130;DHT22;6128;59.340;18.040;2023-08-31T11:50:24;21.60;99.90
12130;DHT22;6128;59.340;18.040;2023-08-31T11:52:52;21.60;99.90
12130;DHT22;6128;59.340;18.040;2023-08-31T11:55:20;21.60;99.90
12130;DHT22;6128;59.340;18.040;2023-08-31T11:57:49;21.60;99.90
12130;DHT22;6128;59.340;18.040;2023-08-31T12:00:17;21.60;99.90
12130;DHT22;6128;59.340;18.040;2023-08-31T12:02:45;21.70;99.90
12130;DHT22;6128;59.340;18.040;2023-08-31T12:05:14;21.90;99.90
12130;DHT22;6128;59.340;18.040;2023-08-31T12:07:43;22.00;99.90
12130;DHT22;6128;59.340;18.040;2023-08-31T12:10:10;22.20;99.90
12130;DHT22;6128;59.340;18.040;2023-08-31T12:12:41;22.30;99.90
12130;DHT22;6128;59.340;18.040;2023-08-31T12:15:11;22.30;99.90
12130;DHT22;6128;59.340;18.040;2023-08-31T12:17:38;22.30;99.90
12130;DHT22;6128;59.340;18.040;2023-08-31T12:20:06;22.40;99.90
12130;DHT22;6128;59.340;18.040;2023-08-31T12:22:35;22.40;99.90
12130;DHT22;6128;59.340;18.040;2023-08-31T12:25:04;22.30;99.90
12130;DHT22;6128;59.340;18.040;2023-08-31T12:27:32;22.30;99.90
12130;DHT22;6128;59.340;18.040;2023-08-31T12:30:00;22.30;99.90
12130;DHT22;6128;59.340;18.040;2023-08-31T12:32:27;22.30;99.90
12130;DHT22;6128;59.340;18.040;2023-08-31T12:34:54;22.20;99.90
12130;DHT22;6128;59.340;18.040;2023-08-31T12:37:21;22.00;99.90
12130;DHT22;6128;59.340;18.040;2023-08-31T12:39:48;21.90;99.90
12130;DHT22;6128;59.340;18.040;2023-08-31T12:42:17;22.00;99.90
12130;DHT22;6128;59.340;18.040;2023-08-31T12:44:44;22.20;99.90
12130;DHT22;6128;59.340;18.040;2023-08-31T12:47:11;22.30;99.90
12130;DHT22;6128;59.340;18.040;2023-08-31T12:49:38;22.50;99.90
12130;DHT22;6128;59.340;18.040;2023-08-31T12:52:05;22.60;99.90
12130;DHT22;6128;59.340;18.040;2023-08-31T12:54:33;22.80;99.90
12130;DHT22;6128;59.340;18.040;2023-08-31T12:56:59;22.80;99.90
12130;DHT22;6128;59.340;18.040;2023-08-31T12:59:28;22.80;99.90
12130;DHT22;6128;59.340;18.040;2023-08-31T13:01:55;22.70;99.90
12130;DHT22;6128;59.340;18.040;2023-08-31T13:04:23;22.60;99.90
12130;DHT22;6128;59.340;18.040;2023-08-31T13:06:50;22.60;99.90
12130;DHT22;6128;59.340;18.040;2023-08-31T13:09:17;22.60;99.90
12130;DHT22;6128;59.340;18.040;2023-08-31T13:11:44;22.70;99.90
12130;DHT22;6128;59.340;18.040;2023-08-31T13:14:11;22.80;99.90
12130;DHT22;6128;59.340;18.040;2023-08-31T13:16:40;23.00;99.90
12130;DHT22;6128;59.340;18.040;2023-08-31T13:19:07;23.10;99.90
12130;DHT22;6128;59.340;18.040;2023-08-31T13:21:34;23.20;99.90
12130;DHT22;6128;59.340;18.040;2023-08-31T13:24:01;23.20;99.90
12130;DHT22;6128;59.340;18.040;2023-08-31T13:26:29;23.10;99.90
12130;DHT22;6128;59.340;18.040;2023-08-31T13:28:56;23.00;99.90
12130;DHT22;6128;59.340;18.040;2023-08-31T13:31:23;22.90;99.90
12130;DHT22;6128;59.340;18.040;2023-08-31T13:33:51;22.90;99.90
12130;DHT22;6128;59.340;18.040;2023-08-31T13:36:19;22.70;99.90
12130;DHT22;6128;59.340;18.040;2023-08-31T13:38:46;22.60;99.90
12130;DHT22;6128;59.340;18.040;2023-08-31T13:41:13;22.50;99.90
12130;DHT22;6128;59.340;18.040;2023-08-31T13:43:40;22.40;99.90
12130;DHT22;6128;59.340;18.040;2023-08-31T13:46:08;22.20;99.90
12130;DHT22;6128;59.340;18.040;2023-08-31T13:48:35;22.20;99.90
12130;DHT22;6128;59.340;18.040;2023-08-31T13:51:04;22.20;99.90
12130;DHT22;6128;59.340;18.040;2023-08-31T13:53:31;22.20;99.90
12130;DHT22;6128;59.340;18.040;2023-08-31T13:55:58;22.40;99.90
12130;DHT22;6128;59.340;18.040;2023-08-31T13:58:25;22.60;99.90
12130;DHT22;6128;59.340;18.040;2023-08-31T14:00:52;22.60;99.90
12130;DHT22;6128;59.340;18.040;2023-08-31T14:03:19;22.70;99.90
12130;DHT22;6128;59.340;18.040;2023-08-31T14:05:48;22.80;99.90
12130;DHT22;6128;59.340;18.040;2023-08-31T14:08:17;22.90;99.90
12130;DHT22;6128;59.340;18.040;2023-08-31T14:10:44;22.80;99.90
12130;DHT22;6128;59.340;18.040;2023-08-31T14:13:11;22.80;99.90
12130;DHT22;6128;59.340;18.040;2023-08-31T14:15:38;22.80;99.90
12130;DHT22;6128;59.340;18.040;2023-08-31T14:18:11;22.70;99.90
12130;DHT22;6128;59.340;18.040;2023-08-31T14:20:38;22.60;99.90
12130;DHT22;6128;59.340;18.040;2023-08-31T14:23:06;22.60;99.90
12130;DHT22;6128;59.340;18.040;2023-08-31T14:25:35;22.60;99.90
12130;DHT22;6128;59.340;18.040;2023-08-31T14:28:04;22.60;99.90
12130;DHT22;6128;59.340;18.040;2023-08-31T14:30:31;22.50;99.90
12130;DHT22;6128;59.340;18.040;2023-08-31T14:32:58;22.50;99.90
12130;DHT22;6128;59.340;18.040;2023-08-31T14:35:26;22.50;99.90
12130;DHT22;6128;59.340;18.040;2023-08-31T14:37:54;22.40;99.90
12130;DHT22;6128;59.340;18.040;2023-08-31T14:40:21;22.30;99.90
12130;DHT22;6128;59.340;18.040;2023-08-31T14:42:52;22.20;99.90
12130;DHT22;6128;59.340;18.040;2023-08-31T14:45:19;22.00;99.90
12130;DHT22;6128;59.340;18.040;2023-08-31T14:47:46;21.90;99.90
12130;DHT22;6128;59.340;18.040;2023-08-31T14:50:13;21.90;99.90
12130;DHT22;6128;59.340;18.040;2023-08-31T14:52:41;21.70;99.90
12130;DHT22;6128;59.340;18.040;2023-08-31T14:55:08;21.60;99.90
12130;DHT22;6128;59.340;18.040;2023-08-31T14:57:36;21.30;99.90
12130;DHT22;6128;59.340;18.040;2023-08-31T15:00:05;21.20;99.90
12130;DHT22;6128;59.340;18.040;2023-08-31T15:02:33;21.20;99.90
12130;DHT22;6128;59.340;18.040;2023-08-31T15:05:00;21.10;99.90
12130;DHT22;6128;59.340;18.040;2023-08-31T15:07:27;21.20;99.90
12130;DHT22;6128;59.340;18.040;2023-08-31T15:09:54;21.20;99.90
12130;DHT22;6128;59.340;18.040;2023-08-31T15:12:21;21.20;99.90
12130;DHT22;6128;59.340;18.040;2023-08-31T15:14:48;21.20;99.90
12130;DHT22;6128;59.340;18.040;2023-08-31T15:17:17;21.20;99.90
12130;DHT22;6128;59.340;18.040;2023-08-31T15:19:44;21.20;99.90
12130;DHT22;6128;59.340;18.040;2023-08-31T15:22:11;21.20;99.90
12130;DHT22;6128;59.340;18.040;2023-08-31T15:24:38;21.20;99.90
12130;DHT22;6128;59.340;18.040;2023-08-31T15:27:08;21.20;99.90
12130;DHT22;6128;59.340;18.040;2023-08-31T15:29:35;21.20;99.90
12130;DHT22;6128;59.340;18.040;2023-08-31T15:32:02;21.00;99.90
12130;DHT22;6128;59.340;18.040;2023-08-31T15:34:32;20.90;99.90
12130;DHT22;6128;59.340;18.040;2023-08-31T15:36:59;20.80;99.90
12130;DHT22;6128;59.340;18.040;2023-08-31T15:39:26;20.60;99.90
12130;DHT22;6128;59.340;18.040;2023-08-31T15:41:54;20.30;99.90